Time;durP1;ratioP1;P1;durP2;ratioP2;P2;SDS_P1;SDS_P2;PMS_P1;PMS_P2;Temp;Humidity;BMP_temperature;BMP_pressure;BME280_temperature;BME280_humidity;BME280_pressure;Samples;Min_cycle;Max_cycle;Signal;HPM_P1;HPM_P2
2022/11/16 00:00:16;;;;;;;;;;;;;;;11.18;58.16;94130.44;5067414;28;20116;-67
2022/11/16 00:02:41;;;;;;;;;;;;;;;11.23;58.30;94124.91;5068504;28;20103;-69
2022/11/16 00:05:06;;;;;;;;;;;;;;;11.29;57.92;94117.47;5068170;28;20024;-68
2022/11/16 00:07:32;;;;;;;;;;;;;;;11.36;57.89;94110.50;5068750;28;20020;-67
2022/11/16 00:09:57;;;;;;;;;;;;;;;11.40;57.67;94100.72;5070773;28;20017;-68
2022/11/16 00:12:22;;;;;;;;;;;;;;;11.42;57.81;94103.06;5070432;28;20062;-66
2022/11/16 00:14:47;;;;;;;;;;;;;;;11.59;57.24;94099.38;5072384;28;20018;-68
2022/11/16 00:17:12;;;;;;;;;;;;;;;11.68;56.87;94098.16;5071660;28;20104;-66
2022/11/16 00:19:37;;;;;;;;;;;;;;;11.74;56.71;94106.69;5072865;28;20013;-67
2022/11/16 00:22:03;;;;;;;;;;;;;;;11.82;56.64;94108.47;5072380;28;20012;-67
2022/11/16 00:24:28;;;;;;;;;;;;;;;11.89;56.18;94108.69;5072134;28;20013;-66
2022/11/16 00:26:54;;;;;;;;;;;;;;;11.95;56.14;94118.00;5070404;28;20187;-67
2022/11/16 00:29:21;;;;;;;;;;;;;;;11.93;55.52;94114.13;5072557;28;20159;-68
2022/11/16 00:31:46;;;;;;;;;;;;;;;11.97;55.95;94115.75;5069097;28;20107;-66
2022/11/16 00:34:11;;;;;;;;;;;;;;;12.03;55.80;94107.50;5071161;28;20087;-67
2022/11/16 00:36:37;;;;;;;;;;;;;;;12.03;55.75;94107.50;5071296;28;20013;-67
2022/11/16 00:39:02;;;;;;;;;;;;;;;12.05;55.25;94110.63;5071781;28;20012;-67
2022/11/16 00:41:28;;;;;;;;;;;;;;;12.04;55.27;94115.19;5070585;28;20458;-67
2022/11/16 00:43:53;;;;;;;;;;;;;;;11.99;55.10;94112.75;5070305;28;20438;-68
2022/11/16 00:46:19;;;;;;;;;;;;;;;11.97;55.23;94120.31;5068797;28;20013;-67
2022/11/16 00:48:44;;;;;;;;;;;;;;;11.95;55.20;94125.22;5070879;28;20044;-68
2022/11/16 00:51:09;;;;;;;;;;;;;;;11.91;55.22;94117.09;5070226;28;20018;-68
2022/11/16 00:53:35;;;;;;;;;;;;;;;11.90;55.79;94107.56;5070311;28;20016;-67
2022/11/16 00:56:00;;;;;;;;;;;;;;;11.96;55.94;94114.19;5069662;28;20427;-67
2022/11/16 00:58:25;;;;;;;;;;;;;;;12.04;55.80;94111.75;5072052;28;20005;-67
2022/11/16 01:00:51;;;;;;;;;;;;;;;12.15;55.37;94110.16;5069020;28;20014;-67
2022/11/16 01:03:16;;;;;;;;;;;;;;;12.28;54.99;94109.00;5069783;28;20058;-67
2022/11/16 01:05:41;;;;;;;;;;;;;;;12.35;54.70;94101.19;5070754;28;20039;-66
2022/11/16 01:08:06;;;;;;;;;;;;;;;12.44;54.45;94099.16;5071939;28;20103;-66
2022/11/16 01:10:32;;;;;;;;;;;;;;;12.48;54.34;94100.03;5069928;28;20013;-68
2022/11/16 01:12:57;;;;;;;;;;;;;;;12.53;54.16;94099.00;5070941;28;20483;-67
2022/11/16 01:15:23;;;;;;;;;;;;;;;12.58;53.96;94095.31;5070110;28;20013;-67
2022/11/16 01:17:48;;;;;;;;;;;;;;;12.59;54.08;94096.84;5071921;28;20036;-66
2022/11/16 01:20:15;;;;;;;;;;;;;;;12.54;53.84;94083.75;5070603;28;20412;-66
2022/11/16 01:22:41;;;;;;;;;;;;;;;12.60;53.78;94077.09;5071723;28;20499;-67
2022/11/16 01:25:07;;;;;;;;;;;;;;;12.61;53.80;94075.97;5069726;28;20052;-67
2022/11/16 01:27:32;;;;;;;;;;;;;;;12.61;53.70;94071.41;5071819;28;20001;-67
2022/11/16 01:29:57;;;;;;;;;;;;;;;12.68;53.70;94070.81;5069267;28;20555;-66
2022/11/16 01:32:23;;;;;;;;;;;;;;;12.71;53.65;94073.56;5069851;28;20075;-67
2022/11/16 01:34:49;;;;;;;;;;;;;;;12.70;53.16;94071.25;5069688;28;20024;-67
2022/11/16 01:37:14;;;;;;;;;;;;;;;12.67;53.17;94069.25;5069966;28;20014;-67
2022/11/16 01:39:40;;;;;;;;;;;;;;;12.77;53.31;94068.75;5070489;28;20351;-67
2022/11/16 01:42:05;;;;;;;;;;;;;;;12.69;53.48;94070.47;5070051;28;20017;-65
2022/11/16 01:44:30;;;;;;;;;;;;;;;12.73;53.32;94065.22;5070222;28;20013;-65
2022/11/16 01:46:55;;;;;;;;;;;;;;;12.81;53.16;94066.19;5069399;28;20014;-66
2022/11/16 01:49:22;;;;;;;;;;;;;;;12.17;53.75;94067.94;5071094;28;20469;-66
2022/11/16 01:51:54;;;;;;;;;;;;;;;12.35;54.08;94071.88;5069018;28;20553;-67
2022/11/16 01:54:19;;;;;;;;;;;;;;;12.58;53.80;94077.41;5069037;28;20012;-65
2022/11/16 01:56:46;;;;;;;;;;;;;;;12.69;53.64;94073.16;5069427;28;20013;-66
2022/11/16 01:59:12;;;;;;;;;;;;;;;12.78;53.51;94072.97;5069423;28;20100;-67
2022/11/16 02:01:37;;;;;;;;;;;;;;;12.84;53.08;94068.91;5068794;28;20112;-66
2022/11/16 02:04:02;;;;;;;;;;;;;;;12.81;52.89;94066.94;5069830;28;20013;-66
2022/11/16 02:06:31;;;;;;;;;;;;;;;12.83;52.80;94078.03;5068346;28;20017;-67
2022/11/16 02:12:04;;;;;;;;;;;;;;;12.83;52.76;94048.69;5069599;28;20039;-66
2022/11/16 02:14:50;;;;;;;;;;;;;;;12.61;53.09;94047.38;5069999;28;20096;-66
2022/11/16 02:17:34;;;;;;;;;;;;;;;12.56;53.24;94049.53;5069306;28;20013;-66
2022/11/16 02:20:13;;;;;;;;;;;;;;;12.59;53.41;94048.84;5068674;28;20017;-66
2022/11/16 02:23:05;;;;;;;;;;;;;;;12.56;53.50;94057.53;5062178;28;20009;-66
2022/11/16 02:25:52;;;;;;;;;;;;;;;12.59;53.21;94064.84;5065969;28;20017;-66
2022/11/16 02:28:29;;;;;;;;;;;;;;;12.64;53.31;94057.38;5064495;28;20063;-65
2022/11/16 02:30:56;;;;;;;;;;;;;;;12.69;53.14;94059.81;5064713;28;20060;-66
2022/11/16 02:33:26;;;;;;;;;;;;;;;12.65;53.04;94063.50;5057511;28;20021;-66
2022/11/16 02:35:54;;;;;;;;;;;;;;;12.64;53.32;94052.06;5049960;28;20013;-66
2022/11/16 02:38:22;;;;;;;;;;;;;;;12.61;53.28;94050.06;5061253;28;20482;-67
2022/11/16 02:40:50;;;;;;;;;;;;;;;12.59;53.01;94054.97;5068741;28;20009;-67
2022/11/16 02:43:25;;;;;;;;;;;;;;;12.64;53.31;94048.59;5066945;28;20013;-67
2022/11/16 02:45:53;;;;;;;;;;;;;;;12.69;53.39;94049.13;5069490;28;20019;-65
2022/11/16 02:48:22;;;;;;;;;;;;;;;12.73;53.15;94035.84;5070591;28;20005;-67
2022/11/16 02:50:51;;;;;;;;;;;;;;;12.67;53.29;94029.25;5068853;28;20018;-67
2022/11/16 02:53:16;;;;;;;;;;;;;;;12.58;53.46;94033.97;5070032;28;20049;-66
2022/11/16 02:55:41;;;;;;;;;;;;;;;12.64;53.40;94035.25;5082071;22;20067;-71
2022/11/16 02:58:10;;;;;;;;;;;;;;;12.13;54.47;94053.72;5050986;28;20566;-70
2022/11/16 03:00:50;;;;;;;;;;;;;;;12.23;54.23;94064.72;5048839;28;20096;-71
2022/11/16 03:03:32;;;;;;;;;;;;;;;12.28;54.14;94057.56;5045423;28;20009;-70
2022/11/16 03:06:02;;;;;;;;;;;;;;;12.48;53.94;94056.56;5046281;28;20500;-71
2022/11/16 03:08:32;;;;;;;;;;;;;;;12.65;53.74;94058.16;5048303;28;20014;-70
2022/11/16 03:13:45;;;;;;;;;;;;;;;12.83;53.40;94046.03;5050246;28;20012;-70
2022/11/16 03:16:25;;;;;;;;;;;;;;;12.92;53.16;94049.31;5048653;28;20515;-70
2022/11/16 03:18:54;;;;;;;;;;;;;;;12.99;52.70;94049.47;5049440;28;20014;-69
2022/11/16 03:21:36;;;;;;;;;;;;;;;13.04;52.79;94047.66;5038712;28;20013;-70
2022/11/16 03:24:01;;;;;;;;;;;;;;;13.08;52.74;94053.84;5029943;28;20005;-70
2022/11/16 03:26:30;;;;;;;;;;;;;;;12.75;53.01;94053.09;5039021;28;20014;-70
2022/11/16 03:28:59;;;;;;;;;;;;;;;12.30;54.21;94050.00;5049580;28;20377;-71
2022/11/16 03:31:30;;;;;;;;;;;;;;;12.60;54.05;94061.84;5047994;28;20104;-70
2022/11/16 03:33:57;;;;;;;;;;;;;;;11.05;58.39;94070.31;5048537;28;20009;-70
2022/11/16 03:36:22;;;;;;;;;;;;;;;10.49;61.31;94080.66;5048624;28;20021;-70
2022/11/16 03:38:49;;;;;;;;;;;;;;;11.24;58.87;94077.75;5049471;28;20006;-69
2022/11/16 03:41:15;;;;;;;;;;;;;;;9.93;64.23;94093.47;5048542;28;20332;-69
2022/11/16 03:43:42;;;;;;;;;;;;;;;10.19;63.66;94091.41;5050119;28;20017;-70
2022/11/16 03:46:07;;;;;;;;;;;;;;;10.45;62.53;94098.41;5052490;28;20055;-70
2022/11/16 03:48:34;;;;;;;;;;;;;;;10.78;61.75;94107.09;5053656;28;20006;-69
2022/11/16 03:50:59;;;;;;;;;;;;;;;9.80;64.90;94108.59;5051676;28;20024;-69
2022/11/16 03:53:24;;;;;;;;;;;;;;;9.76;65.47;94118.31;5053660;28;20005;-70
2022/11/16 03:55:49;;;;;;;;;;;;;;;9.50;66.72;94113.16;5050858;28;20017;-69
2022/11/16 03:58:17;;;;;;;;;;;;;;;9.23;68.82;94120.50;5052354;28;20005;-69
2022/11/16 04:00:42;;;;;;;;;;;;;;;9.82;66.76;94128.41;5038209;28;20108;-69
2022/11/16 04:03:07;;;;;;;;;;;;;;;9.60;66.94;94126.84;5052860;28;20116;-70
2022/11/16 04:24:47;;;;;;;;;;;;;;;9.88;65.61;94151.03;5053113;28;20566;-70
2022/11/16 04:29:59;;;;;;;;;;;;;;;9.92;65.24;94163.66;5052280;28;20160;-70
2022/11/16 04:37:54;;;;;;;;;;;;;;;10.21;64.75;94160.16;5032744;28;20017;-71
2022/11/16 04:40:20;;;;;;;;;;;;;;;10.10;65.48;94175.72;5033087;28;20006;-70
2022/11/16 04:42:52;;;;;;;;;;;;;;;10.52;64.85;94168.53;5050257;28;20104;-70
2022/11/16 04:48:02;;;;;;;;;;;;;;;10.33;64.91;94168.22;5051796;28;20104;-69
2022/11/16 04:50:27;;;;;;;;;;;;;;;10.31;64.80;94170.44;5051485;28;20108;-70
2022/11/16 04:52:52;;;;;;;;;;;;;;;9.88;66.67;94177.59;5051599;28;20013;-70
2022/11/16 04:55:18;;;;;;;;;;;;;;;9.48;68.34;94166.56;5050385;28;20421;-70
2022/11/16 04:57:43;;;;;;;;;;;;;;;9.34;69.76;94171.31;5049813;28;20017;-70
2022/11/16 05:00:08;;;;;;;;;;;;;;;8.93;71.40;94177.25;5050730;28;20014;-70
2022/11/16 05:02:34;;;;;;;;;;;;;;;8.98;72.05;94174.41;5050920;28;20020;-70
2022/11/16 05:04:59;;;;;;;;;;;;;;;8.74;72.92;94182.91;5050216;28;20278;-70
2022/11/16 05:07:24;;;;;;;;;;;;;;;9.01;72.66;94179.88;5051580;28;20013;-70
2022/11/16 05:09:49;;;;;;;;;;;;;;;8.83;73.48;94183.66;5051379;28;20791;-70
2022/11/16 05:12:19;;;;;;;;;;;;;;;8.69;74.09;94185.72;5048591;28;20028;-70
2022/11/16 05:14:44;;;;;;;;;;;;;;;9.25;73.32;94179.31;5051943;28;20006;-70
2022/11/16 05:17:10;;;;;;;;;;;;;;;9.59;71.32;94180.25;5050667;28;20425;-70
2022/11/16 05:22:19;;;;;;;;;;;;;;;9.46;72.45;94189.22;5051987;28;20016;-70
2022/11/16 05:24:44;;;;;;;;;;;;;;;9.09;73.28;94187.00;5050188;28;20014;-71
2022/11/16 05:27:11;;;;;;;;;;;;;;;9.22;72.76;94190.56;5050166;28;20124;-71
2022/11/16 05:29:36;;;;;;;;;;;;;;;9.12;74.58;94182.97;5051640;28;20010;-71
2022/11/16 05:32:02;;;;;;;;;;;;;;;9.31;73.63;94193.19;5049462;28;20013;-70
2022/11/16 05:34:27;;;;;;;;;;;;;;;9.84;72.60;94195.28;5049702;28;20397;-71
2022/11/16 05:36:52;;;;;;;;;;;;;;;10.06;72.14;94185.44;5049730;28;20018;-70
2022/11/16 05:39:18;;;;;;;;;;;;;;;9.98;71.50;94194.22;5049450;28;20454;-71
2022/11/16 05:41:43;;;;;;;;;;;;;;;10.03;71.39;94191.38;5050449;28;20016;-71
2022/11/16 05:44:09;;;;;;;;;;;;;;;10.43;71.46;94189.09;5049514;28;20543;-71
2022/11/16 05:46:34;;;;;;;;;;;;;;;10.67;71.59;94186.53;5050421;28;20017;-71
2022/11/16 05:49:00;;;;;;;;;;;;;;;10.87;71.55;94195.59;5051346;28;20013;-70
2022/11/16 05:51:25;;;;;;;;;;;;;;;11.09;72.71;94189.09;5047670;28;21972;-71
2022/11/16 05:53:50;;;;;;;;;;;;;;;11.30;72.42;94189.00;5051378;28;20065;-71
2022/11/16 05:56:16;;;;;;;;;;;;;;;11.44;72.07;94186.81;5048317;28;20064;-70
2022/11/16 05:58:41;;;;;;;;;;;;;;;11.56;72.54;94180.72;5051015;28;20009;-72
2022/11/16 06:01:07;;;;;;;;;;;;;;;11.48;71.93;94162.19;5048067;28;20013;-70
2022/11/16 06:03:32;;;;;;;;;;;;;;;11.72;72.33;94180.84;5051165;28;20005;-70
2022/11/16 06:05:57;;;;;;;;;;;;;;;11.80;71.55;94182.59;5049187;28;20014;-71
2022/11/16 06:08:23;;;;;;;;;;;;;;;11.87;71.87;94182.84;5050451;28;20092;-71
2022/11/16 06:10:48;;;;;;;;;;;;;;;11.90;72.07;94186.72;5048550;28;20013;-70
2022/11/16 06:13:14;;;;;;;;;;;;;;;11.95;71.57;94183.84;5050072;28;20152;-70
2022/11/16 06:15:39;;;;;;;;;;;;;;;12.02;72.04;94185.94;5049282;28;20013;-71
2022/11/16 06:18:05;;;;;;;;;;;;;;;12.07;72.22;94186.47;5050885;28;20006;-71
2022/11/16 06:20:30;;;;;;;;;;;;;;;12.12;72.34;94177.47;5048236;28;20470;-71
2022/11/16 06:22:55;;;;;;;;;;;;;;;12.12;72.21;94191.56;5049324;28;20010;-70
2022/11/16 06:25:21;;;;;;;;;;;;;;;12.17;72.23;94182.56;5047338;28;20049;-71
2022/11/16 06:27:46;;;;;;;;;;;;;;;11.98;72.22;94143.19;5050650;28;20073;-70
2022/11/16 06:30:11;;;;;;;;;;;;;;;12.28;72.21;94183.66;5048398;28;20159;-71
2022/11/16 06:32:36;;;;;;;;;;;;;;;12.31;72.23;94182.22;5050330;28;20471;-70
2022/11/16 06:35:02;;;;;;;;;;;;;;;12.34;72.11;94189.56;5049254;28;20013;-70
2022/11/16 06:37:27;;;;;;;;;;;;;;;12.35;72.32;94188.44;5047602;28;20010;-71
2022/11/16 06:39:52;;;;;;;;;;;;;;;12.35;71.66;94183.88;5049489;28;20013;-71
2022/11/16 06:42:17;;;;;;;;;;;;;;;12.36;71.80;94184.66;5049407;28;20059;-71
2022/11/16 06:44:43;;;;;;;;;;;;;;;12.40;71.70;94190.88;5048238;28;20199;-71
2022/11/16 06:47:08;;;;;;;;;;;;;;;12.42;71.81;94175.28;5049203;28;20025;-71
2022/11/16 06:49:33;;;;;;;;;;;;;;;12.43;72.05;94177.59;5048254;28;20013;-71
2022/11/16 06:51:58;;;;;;;;;;;;;;;12.45;71.67;94180.72;5050133;28;20006;-71
2022/11/16 06:54:23;;;;;;;;;;;;;;;12.52;72.10;94188.16;5047887;28;20010;-71
2022/11/16 06:56:48;;;;;;;;;;;;;;;12.54;72.23;94180.59;5048623;28;20017;-70
2022/11/16 06:59:14;;;;;;;;;;;;;;;12.58;72.32;94184.13;5048890;28;20091;-69
2022/11/16 07:01:39;;;;;;;;;;;;;;;12.63;72.24;94189.22;5045419;28;20010;-71
2022/11/16 07:04:04;;;;;;;;;;;;;;;12.65;72.14;94183.56;5049474;28;20010;-71
2022/11/16 07:06:29;;;;;;;;;;;;;;;12.69;72.13;94187.88;5049925;28;20006;-72
2022/11/16 07:08:55;;;;;;;;;;;;;;;12.74;72.09;94184.16;5048431;28;20016;-72
2022/11/16 07:11:20;;;;;;;;;;;;;;;12.80;71.84;94182.03;5048995;28;20018;-71
2022/11/16 07:13:45;;;;;;;;;;;;;;;12.80;71.78;94182.81;5046838;28;20462;-69
2022/11/16 07:16:11;;;;;;;;;;;;;;;12.80;71.48;94179.38;5042560;28;20018;-72
2022/11/16 07:18:37;;;;;;;;;;;;;;;12.87;71.97;94177.66;5048965;28;20383;-73
2022/11/16 07:21:07;;;;;;;;;;;;;;;12.90;71.90;94170.88;5044235;28;20159;-72
2022/11/16 07:23:33;;;;;;;;;;;;;;;12.98;71.73;94173.38;5046359;28;20025;-73
2022/11/16 07:26:00;;;;;;;;;;;;;;;13.04;71.64;94181.13;5046223;28;20528;-72
2022/11/16 07:28:26;;;;;;;;;;;;;;;13.09;71.60;94172.88;5047491;28;20638;-72
2022/11/16 07:30:51;;;;;;;;;;;;;;;13.17;71.63;94177.28;5046907;28;20386;-71
2022/11/16 07:49:04;;;;;;;;;;;;;;;13.59;70.84;94185.59;4858403;29;20133;-70
2022/11/16 07:51:30;;;;;;;;;;;;;;;13.66;71.13;94185.75;4970156;28;20037;-70
2022/11/16 07:53:55;;;;;;;;;;;;;;;13.71;71.01;94182.81;5029682;28;20363;-70
2022/11/16 07:56:21;;;;;;;;;;;;;;;13.78;70.64;94187.56;5029816;28;20025;-70
2022/11/16 07:58:46;;;;;;;;;;;;;;;13.79;70.39;94186.44;5029515;28;20006;-70
2022/11/16 08:01:16;;;;;;;;;;;;;;;13.84;70.28;94186.19;5043213;28;20038;-70
2022/11/16 08:03:42;;;;;;;;;;;;;;;13.86;70.38;94188.50;5047919;28;20490;-71
2022/11/16 08:06:10;;;;;;;;;;;;;;;13.89;70.59;94199.28;5047548;28;20089;-70
2022/11/16 08:08:35;;;;;;;;;;;;;;;13.93;70.26;94192.13;5047634;28;20020;-70
2022/11/16 08:11:05;;;;;;;;;;;;;;;13.97;69.96;94195.66;5048772;28;20017;-71
2022/11/16 08:13:32;;;;;;;;;;;;;;;14.02;69.79;94195.38;5049153;28;20013;-70
2022/11/16 08:16:03;;;;;;;;;;;;;;;14.05;69.87;94199.25;5041841;28;20010;-71
2022/11/16 08:18:29;;;;;;;;;;;;;;;14.11;69.74;94202.41;5048655;28;20079;-70
2022/11/16 08:20:54;;;;;;;;;;;;;;;14.18;69.80;94198.03;5048783;28;21118;-70
2022/11/16 08:23:19;;;;;;;;;;;;;;;14.25;69.04;94203.50;5046397;28;20028;-69
2022/11/16 08:25:44;;;;;;;;;;;;;;;14.35;69.06;94201.41;5037456;28;20013;-69
2022/11/16 08:28:13;;;;;;;;;;;;;;;14.37;68.90;94199.16;5047270;28;20391;-69
2022/11/16 08:30:39;;;;;;;;;;;;;;;14.44;69.15;94197.41;5048403;28;20009;-70
2022/11/16 08:33:04;;;;;;;;;;;;;;;14.53;69.22;94211.38;5052335;28;20083;-69
2022/11/16 08:35:29;;;;;;;;;;;;;;;14.60;68.45;94208.09;5050832;28;20014;-70
2022/11/16 08:37:54;;;;;;;;;;;;;;;14.65;68.09;94210.50;5051542;28;20024;-70
2022/11/16 08:40:20;;;;;;;;;;;;;;;14.69;68.27;94207.88;5047162;28;20017;-70
2022/11/16 08:42:45;;;;;;;;;;;;;;;14.73;68.67;94208.72;5034253;28;20014;-70
2022/11/16 08:45:10;;;;;;;;;;;;;;;14.80;68.46;94214.22;5049196;28;20024;-71
2022/11/16 08:47:36;;;;;;;;;;;;;;;14.86;68.12;94204.78;5051200;28;20014;-70
2022/11/16 08:50:01;;;;;;;;;;;;;;;14.92;68.05;94202.59;5051532;28;20890;-71
2022/11/16 08:52:26;;;;;;;;;;;;;;;15.01;67.59;94211.97;5063907;28;20009;-70
2022/11/16 08:54:51;;;;;;;;;;;;;;;15.11;67.18;94212.50;5049177;28;20013;-70
2022/11/16 08:57:17;;;;;;;;;;;;;;;15.22;67.32;94214.25;5051442;28;20366;-70
2022/11/16 08:59:42;;;;;;;;;;;;;;;15.25;66.83;94208.19;5049981;28;20557;-70
2022/11/16 09:02:08;;;;;;;;;;;;;;;15.26;66.26;94212.41;5049972;28;20024;-70
2022/11/16 09:04:33;;;;;;;;;;;;;;;15.23;66.40;94215.03;5051317;28;20111;-70
2022/11/16 09:06:58;;;;;;;;;;;;;;;15.30;66.78;94212.47;5049579;28;20067;-69
2022/11/16 09:09:24;;;;;;;;;;;;;;;15.31;66.28;94214.03;5052142;28;20504;-70
2022/11/16 09:11:51;;;;;;;;;;;;;;;15.41;66.60;94215.34;5050610;28;20020;-70
2022/11/16 09:14:16;;;;;;;;;;;;;;;15.51;66.13;94214.75;5039519;28;20415;-70
2022/11/16 09:16:41;;;;;;;;;;;;;;;15.64;65.84;94221.50;5044601;28;20017;-70
2022/11/16 09:19:07;;;;;;;;;;;;;;;15.72;65.42;94217.03;5050404;28;20071;-70
2022/11/16 09:21:32;;;;;;;;;;;;;;;15.64;63.02;94224.19;5050026;28;20053;-70
2022/11/16 09:23:57;;;;;;;;;;;;;;;14.69;63.59;94229.28;5051764;28;20005;-70
2022/11/16 09:26:23;;;;;;;;;;;;;;;14.80;65.19;94225.72;5049876;28;20013;-69
2022/11/16 09:28:56;;;;;;;;;;;;;;;14.89;63.84;94238.88;5049212;28;20434;-69
2022/11/16 09:31:22;;;;;;;;;;;;;;;14.15;65.87;94235.38;5049271;28;20111;-69
2022/11/16 09:33:47;;;;;;;;;;;;;;;13.97;68.42;94232.28;5051429;28;20040;-68
2022/11/16 09:36:14;;;;;;;;;;;;;;;13.38;69.83;94241.94;5042421;28;20014;-68
2022/11/16 09:38:42;;;;;;;;;;;;;;;13.64;71.01;94238.00;5046004;28;20036;-69
2022/11/16 09:41:08;;;;;;;;;;;;;;;13.53;70.06;94241.19;5048466;28;20010;-67
2022/11/16 09:43:44;;;;;;;;;;;;;;;13.76;69.69;94233.31;5050926;28;20016;-68
2022/11/16 09:46:19;;;;;;;;;;;;;;;13.30;69.93;94236.75;5048913;28;20009;-71
2022/11/16 09:48:47;;;;;;;;;;;;;;;12.45;73.04;94242.06;5053324;28;20107;-70
2022/11/16 09:51:14;;;;;;;;;;;;;;;12.71;72.84;94240.88;5057304;28;20018;-70
2022/11/16 09:53:51;;;;;;;;;;;;;;;12.25;73.90;94243.00;5055962;28;20438;-70
2022/11/16 09:56:20;;;;;;;;;;;;;;;12.43;73.80;94238.19;5051536;28;20076;-69
2022/11/16 09:58:53;;;;;;;;;;;;;;;12.65;74.09;94250.25;5051581;28;20006;-68
2022/11/16 10:01:21;;;;;;;;;;;;;;;12.07;74.82;94245.13;5048298;28;20100;-69
2022/11/16 10:03:49;;;;;;;;;;;;;;;12.92;72.93;94246.03;5051199;28;20503;-72
2022/11/16 10:06:28;;;;;;;;;;;;;;;12.52;73.65;94248.72;5051217;28;20013;-68
2022/11/16 10:08:55;;;;;;;;;;;;;;;12.15;75.60;94246.13;5050640;28;20024;-68
2022/11/16 10:11:34;;;;;;;;;;;;;;;12.62;74.33;94246.34;5050785;28;20071;-67
2022/11/16 10:13:59;;;;;;;;;;;;;;;12.73;72.56;94246.66;5051300;28;20005;-70
2022/11/16 10:16:24;;;;;;;;;;;;;;;13.18;72.13;94254.38;5049646;28;20009;-67
2022/11/16 10:18:55;;;;;;;;;;;;;;;13.41;71.22;94243.13;5050156;28;20020;-68
2022/11/16 10:21:36;;;;;;;;;;;;;;;12.93;72.02;94240.34;5051374;28;20072;-69
2022/11/16 10:24:01;;;;;;;;;;;;;;;12.57;72.43;94241.25;5051446;28;20009;-68
2022/11/16 10:26:41;;;;;;;;;;;;;;;12.39;73.54;94238.09;5050937;28;20008;-70
2022/11/16 10:29:09;;;;;;;;;;;;;;;12.68;73.23;94239.66;5049735;28;20100;-70
2022/11/16 10:31:43;;;;;;;;;;;;;;;12.05;74.41;94243.91;5048935;28;20414;-70
2022/11/16 10:34:12;;;;;;;;;;;;;;;11.92;75.96;94243.13;5031068;28;20103;-72
2022/11/16 10:36:37;;;;;;;;;;;;;;;11.73;77.01;94241.00;5029539;28;20021;-74
2022/11/16 10:39:10;;;;;;;;;;;;;;;12.10;76.65;94236.47;5031051;28;20006;-72
2022/11/16 10:41:41;;;;;;;;;;;;;;;12.19;75.52;94236.34;5030832;28;20010;-71
2022/11/16 10:44:45;;;;;;;;;;;;;;;12.47;73.19;94231.84;5050908;28;20009;-76
2022/11/16 10:47:17;;;;;;;;;;;;;;;13.27;72.51;94224.88;4965808;28;20050;-72
2022/11/16 10:49:42;;;;;;;;;;;;;;;13.06;71.91;94230.41;4970127;28;20015;-71
2022/11/16 10:52:07;;;;;;;;;;;;;;;12.94;72.33;94230.44;5010842;28;20108;-73
2022/11/16 10:54:33;;;;;;;;;;;;;;;13.25;70.85;94227.88;5050399;28;20010;-71
2022/11/16 10:57:02;;;;;;;;;;;;;;;13.05;71.22;94228.88;5050409;28;20059;-72
2022/11/16 10:59:40;;;;;;;;;;;;;;;12.69;72.39;94233.22;5050658;28;20016;-72
2022/11/16 11:02:24;;;;;;;;;;;;;;;13.02;71.48;94224.19;5049045;28;20013;-72
2022/11/16 11:05:08;;;;;;;;;;;;;;;13.08;70.78;94219.38;5050073;28;20012;-74
2022/11/16 11:07:38;;;;;;;;;;;;;;;13.02;70.84;94214.28;5050890;28;20413;-73
2022/11/16 11:10:04;;;;;;;;;;;;;;;13.08;70.63;94214.03;5049441;28;20386;-74
2022/11/16 11:12:39;;;;;;;;;;;;;;;13.73;69.15;94209.22;5049185;28;20091;-72
2022/11/16 11:15:21;;;;;;;;;;;;;;;14.48;67.15;94211.66;5059501;28;20005;-72
2022/11/16 11:17:48;;;;;;;;;;;;;;;14.12;66.27;94204.75;5061542;28;20109;-73
2022/11/16 11:20:13;;;;;;;;;;;;;;;14.45;66.84;94208.91;5051744;28;20100;-74
2022/11/16 11:22:47;;;;;;;;;;;;;;;15.66;64.85;94210.41;5051069;28;20067;-74
2022/11/16 11:25:23;;;;;;;;;;;;;;;15.09;62.81;94213.63;5050768;28;20009;-73
2022/11/16 11:27:50;;;;;;;;;;;;;;;15.54;62.84;94206.00;5049424;28;20018;-78
2022/11/16 11:30:20;;;;;;;;;;;;;;;15.70;61.74;94209.34;5049270;28;20013;-70
2022/11/16 11:32:45;;;;;;;;;;;;;;;16.55;61.62;94201.75;5048631;28;20381;-73
2022/11/16 11:35:40;;;;;;;;;;;;;;;16.05;59.88;94211.81;5050231;28;20014;-70
2022/11/16 11:38:05;;;;;;;;;;;;;;;15.38;61.41;94203.44;5033158;28;20100;-70
2022/11/16 11:40:31;;;;;;;;;;;;;;;15.75;60.54;94210.94;5050547;28;20542;-71
2022/11/16 11:43:01;;;;;;;;;;;;;;;15.24;62.30;94205.84;5048865;28;20466;-71
2022/11/16 11:45:31;;;;;;;;;;;;;;;15.50;61.85;94210.50;5048758;28;20096;-70
2022/11/16 11:47:59;;;;;;;;;;;;;;;15.17;61.98;94208.41;5049603;28;20020;-71
2022/11/16 11:50:48;;;;;;;;;;;;;;;15.43;61.28;94210.41;5050301;28;20108;-70
2022/11/16 11:53:13;;;;;;;;;;;;;;;14.69;63.84;94214.03;5039311;28;20010;-72
2022/11/16 11:55:38;;;;;;;;;;;;;;;14.67;63.74;94210.91;5049454;28;20063;-71
2022/11/16 11:58:05;;;;;;;;;;;;;;;15.17;62.86;94222.56;5049445;28;20529;-75
2022/11/16 12:00:56;;;;;;;;;;;;;;;14.84;63.24;94217.72;5050554;28;20012;-70
2022/11/16 12:03:29;;;;;;;;;;;;;;;14.07;65.02;94220.28;5032182;28;20018;-71
2022/11/16 12:06:00;;;;;;;;;;;;;;;14.32;64.86;94213.59;5052739;28;20022;-73
2022/11/16 12:08:28;;;;;;;;;;;;;;;13.61;66.14;94215.41;5054330;28;20663;-70
2022/11/16 12:11:08;;;;;;;;;;;;;;;13.39;67.42;94219.44;5052835;28;20022;-71
2022/11/16 12:13:33;;;;;;;;;;;;;;;14.16;65.67;94212.84;5033185;28;20013;-72
2022/11/16 12:16:16;;;;;;;;;;;;;;;14.61;63.72;94217.66;5045612;28;20021;-71
2022/11/16 12:19:00;;;;;;;;;;;;;;;13.22;65.98;94214.44;5051364;28;20040;-73
2022/11/16 12:21:37;;;;;;;;;;;;;;;14.04;64.98;94203.06;5054303;28;20504;-74
2022/11/16 12:24:09;;;;;;;;;;;;;;;14.79;63.07;94207.31;5054011;28;20040;-71
2022/11/16 12:26:42;;;;;;;;;;;;;;;14.44;63.48;94207.34;5052116;28;20014;-73
2022/11/16 12:29:22;;;;;;;;;;;;;;;14.54;62.41;94199.56;5053514;28;20005;-73
2022/11/16 12:31:58;;;;;;;;;;;;;;;14.15;63.01;94192.59;5053498;28;20081;-73
2022/11/16 12:34:32;;;;;;;;;;;;;;;14.82;61.15;94198.56;5053477;28;20005;-73
2022/11/16 12:37:00;;;;;;;;;;;;;;;15.36;61.19;94196.88;5052188;28;20039;-74
2022/11/16 12:39:31;;;;;;;;;;;;;;;15.73;59.23;94194.47;5052966;28;20049;-74
2022/11/16 12:41:56;;;;;;;;;;;;;;;15.77;58.79;94192.63;5052454;28;20374;-71
2022/11/16 12:44:44;;;;;;;;;;;;;;;16.09;58.06;94199.22;5050971;28;20017;-73
2022/11/16 12:47:29;;;;;;;;;;;;;;;16.02;57.09;94199.13;5056795;28;20009;-76
2022/11/16 12:50:17;;;;;;;;;;;;;;;15.94;56.42;94192.09;5058383;28;20017;-76
2022/11/16 12:52:57;;;;;;;;;;;;;;;16.01;56.61;94194.09;5051815;28;20048;-76
2022/11/16 12:55:38;;;;;;;;;;;;;;;16.54;55.93;94186.03;5051446;28;20128;-77
2022/11/16 12:58:13;;;;;;;;;;;;;;;16.99;55.56;94181.56;5052317;28;20400;-75
2022/11/16 13:00:46;;;;;;;;;;;;;;;17.35;54.77;94182.72;5052005;28;20012;-76
2022/11/16 13:03:35;;;;;;;;;;;;;;;17.67;54.44;94177.63;5050972;28;20057;-75
2022/11/16 13:06:02;;;;;;;;;;;;;;;17.23;52.58;94164.16;5041291;28;20064;-76
2022/11/16 13:08:30;;;;;;;;;;;;;;;17.86;53.14;94168.56;5051098;28;20072;-76
2022/11/16 13:10:59;;;;;;;;;;;;;;;17.14;52.47;94162.53;5052373;28;20470;-75
2022/11/16 13:13:30;;;;;;;;;;;;;;;17.54;54.21;94174.44;5051148;28;20009;-75
2022/11/16 13:15:56;;;;;;;;;;;;;;;16.68;53.68;94172.75;5050520;28;20006;-73
2022/11/16 13:18:22;;;;;;;;;;;;;;;16.18;55.41;94176.75;5052400;28;20016;-74
2022/11/16 13:20:47;;;;;;;;;;;;;;;16.22;54.53;94174.84;5052303;28;20541;-74
2022/11/16 13:23:17;;;;;;;;;;;;;;;16.41;53.75;94169.38;5051720;28;20021;-75
2022/11/16 13:25:47;;;;;;;;;;;;;;;17.29;52.68;94168.06;5051523;28;20021;-75
2022/11/16 13:28:31;;;;;;;;;;;;;;;17.32;51.10;94170.03;5050980;28;20477;-74
2022/11/16 13:31:17;;;;;;;;;;;;;;;16.63;52.84;94176.56;5051633;28;20112;-75
2022/11/16 13:33:48;;;;;;;;;;;;;;;15.82;55.15;94176.22;5051105;28;20013;-74
2022/11/16 13:36:32;;;;;;;;;;;;;;;15.02;57.78;94173.31;5051361;28;20013;-74
2022/11/16 13:38:57;;;;;;;;;;;;;;;15.30;54.60;94173.06;5052064;28;20027;-74
2022/11/16 13:41:26;;;;;;;;;;;;;;;14.38;57.49;94164.03;5050407;28;20100;-71
2022/11/16 13:43:51;;;;;;;;;;;;;;;15.02;55.55;94165.28;5050096;28;20073;-74
2022/11/16 13:46:16;;;;;;;;;;;;;;;14.57;56.44;94164.06;5050540;28;20531;-73
2022/11/16 13:48:43;;;;;;;;;;;;;;;14.43;57.12;94165.66;5051397;28;20010;-74